sensor_id;sensor_type;location;lat;lon;timestamp;P1;durP1;ratioP1;P2;durP2;ratioP2
37199;SDS011;23096;50.892;16.746;2023-04-03T00:01:37;5.40;;;2.50;;
37199;SDS011;23096;50.892;16.746;2023-04-03T00:04:04;8.40;;;2.90;;
37199;SDS011;23096;50.892;16.746;2023-04-03T00:06:30;6.00;;;2.50;;
37199;SDS011;23096;50.892;16.746;2023-04-03T00:08:57;7.20;;;2.70;;
37199;SDS011;23096;50.892;16.746;2023-04-03T00:11:23;6.30;;;2.50;;
37199;SDS011;23096;50.892;16.746;2023-04-03T00:13:48;7.20;;;2.30;;
37199;SDS011;23096;50.892;16.746;2023-04-03T00:16:14;6.10;;;2.70;;
37199;SDS011;23096;50.892;16.746;2023-04-03T00:18:40;6.80;;;2.40;;
37199;SDS011;23096;50.892;16.746;2023-04-03T00:21:06;10.10;;;3.40;;
37199;SDS011;23096;50.892;16.746;2023-04-03T00:23:33;8.80;;;2.50;;
37199;SDS011;23096;50.892;16.746;2023-04-03T00:25:59;8.50;;;2.30;;
37199;SDS011;23096;50.892;16.746;2023-04-03T00:28:25;6.10;;;2.50;;
37199;SDS011;23096;50.892;16.746;2023-04-03T00:30:52;5.30;;;2.40;;
37199;SDS011;23096;50.892;16.746;2023-04-03T00:33:17;7.60;;;3.00;;
37199;SDS011;23096;50.892;16.746;2023-04-03T00:35:46;5.70;;;2.50;;
37199;SDS011;23096;50.892;16.746;2023-04-03T00:38:13;5.30;;;2.00;;
37199;SDS011;23096;50.892;16.746;2023-04-03T00:40:41;8.10;;;2.40;;
37199;SDS011;23096;50.892;16.746;2023-04-03T00:43:11;5.50;;;2.20;;
37199;SDS011;23096;50.892;16.746;2023-04-03T00:45:41;6.70;;;2.50;;
37199;SDS011;23096;50.892;16.746;2023-04-03T00:48:10;10.60;;;2.50;;
37199;SDS011;23096;50.892;16.746;2023-04-03T00:50:39;7.20;;;2.20;;
37199;SDS011;23096;50.892;16.746;2023-04-03T00:53:06;7.60;;;2.60;;
37199;SDS011;23096;50.892;16.746;2023-04-03T00:55:36;7.20;;;1.80;;
37199;SDS011;23096;50.892;16.746;2023-04-03T00:58:03;5.30;;;2.80;;
37199;SDS011;23096;50.892;16.746;2023-04-03T01:00:32;8.90;;;2.60;;
37199;SDS011;23096;50.892;16.746;2023-04-03T01:02:58;5.40;;;2.00;;
37199;SDS011;23096;50.892;16.746;2023-04-03T01:05:26;8.30;;;2.60;;
37199;SDS011;23096;50.892;16.746;2023-04-03T01:07:52;4.60;;;2.40;;
37199;SDS011;23096;50.892;16.746;2023-04-03T01:10:18;4.40;;;1.80;;
37199;SDS011;23096;50.892;16.746;2023-04-03T01:12:48;5.80;;;2.50;;
37199;SDS011;23096;50.892;16.746;2023-04-03T01:15:20;6.70;;;2.50;;
37199;SDS011;23096;50.892;16.746;2023-04-03T01:18:09;6.50;;;2.70;;
37199;SDS011;23096;50.892;16.746;2023-04-03T01:23:25;5.70;;;2.40;;
37199;SDS011;23096;50.892;16.746;2023-04-03T01:26:02;11.10;;;3.10;;
37199;SDS011;23096;50.892;16.746;2023-04-03T01:28:32;12.50;;;3.80;;
37199;SDS011;23096;50.892;16.746;2023-04-03T01:33:45;7.00;;;2.20;;
37199;SDS011;23096;50.892;16.746;2023-04-03T01:36:19;5.10;;;2.20;;
37199;SDS011;23096;50.892;16.746;2023-04-03T01:38:48;7.80;;;2.50;;
37199;SDS011;23096;50.892;16.746;2023-04-03T01:41:17;7.50;;;1.90;;
37199;SDS011;23096;50.892;16.746;2023-04-03T01:43:47;5.60;;;2.40;;
37199;SDS011;23096;50.892;16.746;2023-04-03T01:46:16;6.00;;;2.50;;
37199;SDS011;23096;50.892;16.746;2023-04-03T01:48:44;6.70;;;2.40;;
37199;SDS011;23096;50.892;16.746;2023-04-03T01:51:09;5.90;;;2.90;;
37199;SDS011;23096;50.892;16.746;2023-04-03T01:53:35;7.30;;;2.20;;
37199;SDS011;23096;50.892;16.746;2023-04-03T01:56:02;5.00;;;2.10;;
37199;SDS011;23096;50.892;16.746;2023-04-03T01:58:29;9.90;;;3.20;;
37199;SDS011;23096;50.892;16.746;2023-04-03T02:00:55;8.40;;;2.70;;
37199;SDS011;23096;50.892;16.746;2023-04-03T02:03:20;6.90;;;2.10;;
37199;SDS011;23096;50.892;16.746;2023-04-03T02:05:47;10.30;;;3.20;;
37199;SDS011;23096;50.892;16.746;2023-04-03T02:08:13;5.60;;;2.60;;
37199;SDS011;23096;50.892;16.746;2023-04-03T02:10:39;5.10;;;2.00;;
37199;SDS011;23096;50.892;16.746;2023-04-03T02:13:05;10.50;;;3.70;;
37199;SDS011;23096;50.892;16.746;2023-04-03T02:15:31;5.50;;;2.40;;
37199;SDS011;23096;50.892;16.746;2023-04-03T02:17:58;7.20;;;2.90;;
37199;SDS011;23096;50.892;16.746;2023-04-03T02:20:25;5.60;;;2.50;;
37199;SDS011;23096;50.892;16.746;2023-04-03T02:22:51;9.60;;;2.30;;
37199;SDS011;23096;50.892;16.746;2023-04-03T02:25:17;7.20;;;2.20;;
37199;SDS011;23096;50.892;16.746;2023-04-03T02:27:42;9.80;;;3.20;;
37199;SDS011;23096;50.892;16.746;2023-04-03T02:30:08;6.70;;;2.30;;
37199;SDS011;23096;50.892;16.746;2023-04-03T02:32:36;5.40;;;2.00;;
37199;SDS011;23096;50.892;16.746;2023-04-03T11:36:48;6.30;;;2.50;;
37199;SDS011;23096;50.892;16.746;2023-04-03T11:41:52;8.20;;;4.10;;
37199;SDS011;23096;50.892;16.746;2023-04-03T11:44:29;4.10;;;2.00;;
37199;SDS011;23096;50.892;16.746;2023-04-03T11:46:58;7.00;;;3.20;;
37199;SDS011;23096;50.892;16.746;2023-04-03T12:16:29;4.80;;;2.40;;
37199;SDS011;23096;50.892;16.746;2023-04-03T12:26:38;4.40;;;2.20;;
37199;SDS011;23096;50.892;16.746;2023-04-03T12:29:29;7.90;;;3.50;;
37199;SDS011;23096;50.892;16.746;2023-04-03T12:32:10;6.60;;;2.00;;
37199;SDS011;23096;50.892;16.746;2023-04-03T12:34:55;4.50;;;2.20;;
37199;SDS011;23096;50.892;16.746;2023-04-03T12:54:16;8.00;;;2.30;;
37199;SDS011;23096;50.892;16.746;2023-04-03T12:56:47;5.60;;;3.00;;
37199;SDS011;23096;50.892;16.746;2023-04-03T13:01:52;5.10;;;2.00;;
37199;SDS011;23096;50.892;16.746;2023-04-03T13:04:19;5.20;;;3.00;;
37199;SDS011;23096;50.892;16.746;2023-04-03T13:06:45;1.50;;;1.40;;
37199;SDS011;23096;50.892;16.746;2023-04-03T13:09:27;3.20;;;1.70;;
37199;SDS011;23096;50.892;16.746;2023-04-03T13:11:59;6.00;;;1.90;;
37199;SDS011;23096;50.892;16.746;2023-04-03T13:14:36;11.20;;;3.70;;
37199;SDS011;23096;50.892;16.746;2023-04-03T13:17:19;3.60;;;2.20;;
37199;SDS011;23096;50.892;16.746;2023-04-03T13:19:46;5.40;;;2.40;;
37199;SDS011;23096;50.892;16.746;2023-04-03T13:25:13;7.60;;;4.10;;
37199;SDS011;23096;50.892;16.746;2023-04-03T13:27:40;4.50;;;2.20;;
37199;SDS011;23096;50.892;16.746;2023-04-03T13:30:28;11.70;;;5.00;;
37199;SDS011;23096;50.892;16.746;2023-04-03T13:32:56;8.00;;;3.30;;
37199;SDS011;23096;50.892;16.746;2023-04-03T13:35:25;5.50;;;2.60;;
37199;SDS011;23096;50.892;16.746;2023-04-03T13:37:55;13.80;;;4.10;;
37199;SDS011;23096;50.892;16.746;2023-04-03T13:40:22;4.90;;;2.40;;
37199;SDS011;23096;50.892;16.746;2023-04-03T13:42:57;7.70;;;3.90;;
37199;SDS011;23096;50.892;16.746;2023-04-03T13:45:29;10.80;;;3.90;;
37199;SDS011;23096;50.892;16.746;2023-04-03T13:48:18;6.20;;;2.80;;
37199;SDS011;23096;50.892;16.746;2023-04-03T13:50:54;5.20;;;2.70;;
37199;SDS011;23096;50.892;16.746;2023-04-03T13:53:24;6.10;;;3.10;;
37199;SDS011;23096;50.892;16.746;2023-04-03T13:56:05;7.50;;;3.70;;
37199;SDS011;23096;50.892;16.746;2023-04-03T13:58:34;3.40;;;2.00;;
37199;SDS011;23096;50.892;16.746;2023-04-03T14:03:45;9.10;;;3.70;;
37199;SDS011;23096;50.892;16.746;2023-04-03T14:06:23;6.80;;;2.80;;
37199;SDS011;23096;50.892;16.746;2023-04-03T14:08:50;7.50;;;3.70;;
37199;SDS011;23096;50.892;16.746;2023-04-03T14:11:35;5.40;;;2.30;;
37199;SDS011;23096;50.892;16.746;2023-04-03T14:14:02;6.60;;;3.70;;
37199;SDS011;23096;50.892;16.746;2023-04-03T14:16:32;9.40;;;4.50;;
37199;SDS011;23096;50.892;16.746;2023-04-03T14:19:02;7.40;;;3.80;;
37199;SDS011;23096;50.892;16.746;2023-04-03T14:21:28;4.60;;;2.60;;
37199;SDS011;23096;50.892;16.746;2023-04-03T14:23:53;3.60;;;2.20;;
37199;SDS011;23096;50.892;16.746;2023-04-03T14:26:20;6.80;;;3.40;;
37199;SDS011;23096;50.892;16.746;2023-04-03T14:28:49;5.50;;;2.50;;
37199;SDS011;23096;50.892;16.746;2023-04-03T14:31:17;7.90;;;3.00;;
37199;SDS011;23096;50.892;16.746;2023-04-03T14:33:43;8.10;;;3.40;;
37199;SDS011;23096;50.892;16.746;2023-04-03T14:36:14;6.80;;;2.70;;
37199;SDS011;23096;50.892;16.746;2023-04-03T14:38:41;6.40;;;3.20;;
37199;SDS011;23096;50.892;16.746;2023-04-03T14:41:10;6.80;;;3.90;;
37199;SDS011;23096;50.892;16.746;2023-04-03T14:43:38;5.60;;;3.10;;
37199;SDS011;23096;50.892;16.746;2023-04-03T14:46:04;7.50;;;3.30;;
37199;SDS011;23096;50.892;16.746;2023-04-03T14:48:31;7.40;;;3.30;;
37199;SDS011;23096;50.892;16.746;2023-04-03T14:50:56;7.20;;;3.30;;
37199;SDS011;23096;50.892;16.746;2023-04-03T14:53:22;7.50;;;3.60;;
37199;SDS011;23096;50.892;16.746;2023-04-03T14:55:50;6.60;;;2.90;;
37199;SDS011;23096;50.892;16.746;2023-04-03T14:58:17;10.00;;;3.40;;
37199;SDS011;23096;50.892;16.746;2023-04-03T15:00:45;7.40;;;3.40;;
37199;SDS011;23096;50.892;16.746;2023-04-03T15:03:13;5.10;;;2.70;;
37199;SDS011;23096;50.892;16.746;2023-04-03T15:05:40;9.30;;;3.90;;
37199;SDS011;23096;50.892;16.746;2023-04-03T15:08:08;21.20;;;5.60;;
37199;SDS011;23096;50.892;16.746;2023-04-03T15:10:51;10.00;;;4.30;;
37199;SDS011;23096;50.892;16.746;2023-04-03T15:13:18;12.00;;;3.60;;
37199;SDS011;23096;50.892;16.746;2023-04-03T15:15:45;5.20;;;2.90;;
37199;SDS011;23096;50.892;16.746;2023-04-03T15:18:14;7.30;;;3.40;;
37199;SDS011;23096;50.892;16.746;2023-04-03T15:20:42;8.10;;;3.20;;
37199;SDS011;23096;50.892;16.746;2023-04-03T15:23:08;19.60;;;3.50;;
37199;SDS011;23096;50.892;16.746;2023-04-03T15:25:35;6.90;;;3.50;;
37199;SDS011;23096;50.892;16.746;2023-04-03T15:28:01;5.20;;;3.10;;
37199;SDS011;23096;50.892;16.746;2023-04-03T15:30:27;7.60;;;3.80;;
37199;SDS011;23096;50.892;16.746;2023-04-03T15:32:52;12.70;;;5.90;;
37199;SDS011;23096;50.892;16.746;2023-04-03T15:35:18;7.70;;;4.10;;
37199;SDS011;23096;50.892;16.746;2023-04-03T15:37:44;4.30;;;2.60;;
37199;SDS011;23096;50.892;16.746;2023-04-03T15:40:09;12.30;;;4.80;;
37199;SDS011;23096;50.892;16.746;2023-04-03T15:42:35;8.60;;;4.80;;
37199;SDS011;23096;50.892;16.746;2023-04-03T15:45:01;9.60;;;4.60;;
37199;SDS011;23096;50.892;16.746;2023-04-03T15:47:26;3.80;;;2.80;;
37199;SDS011;23096;50.892;16.746;2023-04-03T15:49:53;13.00;;;4.90;;
37199;SDS011;23096;50.892;16.746;2023-04-03T15:52:20;12.80;;;5.90;;
37199;SDS011;23096;50.892;16.746;2023-04-03T15:54:45;8.70;;;4.20;;
37199;SDS011;23096;50.892;16.746;2023-04-03T15:57:11;9.80;;;4.80;;
37199;SDS011;23096;50.892;16.746;2023-04-03T15:59:37;23.70;;;8.80;;
37199;SDS011;23096;50.892;16.746;2023-04-03T16:02:03;10.70;;;5.60;;
37199;SDS011;23096;50.892;16.746;2023-04-03T16:04:32;17.00;;;8.30;;
37199;SDS011;23096;50.892;16.746;2023-04-03T16:07:02;13.30;;;5.50;;
37199;SDS011;23096;50.892;16.746;2023-04-03T16:09:29;9.10;;;4.70;;
37199;SDS011;23096;50.892;16.746;2023-04-03T16:11:56;10.10;;;5.10;;
37199;SDS011;23096;50.892;16.746;2023-04-03T16:14:22;11.40;;;5.70;;
37199;SDS011;23096;50.892;16.746;2023-04-03T16:16:47;14.40;;;4.30;;
37199;SDS011;23096;50.892;16.746;2023-04-03T16:19:13;11.70;;;5.30;;
37199;SDS011;23096;50.892;16.746;2023-04-03T16:21:39;9.10;;;5.00;;
37199;SDS011;23096;50.892;16.746;2023-04-03T16:24:05;12.50;;;6.30;;
37199;SDS011;23096;50.892;16.746;2023-04-03T16:26:31;8.70;;;4.60;;
37199;SDS011;23096;50.892;16.746;2023-04-03T16:28:57;16.30;;;8.50;;
37199;SDS011;23096;50.892;16.746;2023-04-03T16:31:23;7.60;;;4.20;;
37199;SDS011;23096;50.892;16.746;2023-04-03T16:33:50;9.30;;;4.50;;
37199;SDS011;23096;50.892;16.746;2023-04-03T16:36:15;11.00;;;5.00;;
37199;SDS011;23096;50.892;16.746;2023-04-03T16:38:41;10.70;;;5.10;;
37199;SDS011;23096;50.892;16.746;2023-04-03T16:41:06;12.30;;;6.00;;
37199;SDS011;23096;50.892;16.746;2023-04-03T16:43:32;14.00;;;6.00;;
37199;SDS011;23096;50.892;16.746;2023-04-03T16:45:58;15.00;;;7.70;;
37199;SDS011;23096;50.892;16.746;2023-04-03T16:48:24;10.00;;;4.20;;
37199;SDS011;23096;50.892;16.746;2023-04-03T16:50:50;7.30;;;3.80;;
37199;SDS011;23096;50.892;16.746;2023-04-03T16:53:19;8.10;;;4.50;;
37199;SDS011;23096;50.892;16.746;2023-04-03T16:55:45;13.00;;;6.70;;
37199;SDS011;23096;50.892;16.746;2023-04-03T16:58:11;19.80;;;6.40;;
37199;SDS011;23096;50.892;16.746;2023-04-03T17:00:37;14.40;;;7.40;;
37199;SDS011;23096;50.892;16.746;2023-04-03T17:03:03;15.30;;;6.40;;
37199;SDS011;23096;50.892;16.746;2023-04-03T17:05:29;16.20;;;6.90;;
37199;SDS011;23096;50.892;16.746;2023-04-03T17:07:54;16.00;;;7.10;;
37199;SDS011;23096;50.892;16.746;2023-04-03T17:10:20;18.80;;;7.60;;
37199;SDS011;23096;50.892;16.746;2023-04-03T17:12:45;24.10;;;10.80;;
37199;SDS011;23096;50.892;16.746;2023-04-03T17:15:11;14.40;;;7.10;;
37199;SDS011;23096;50.892;16.746;2023-04-03T17:17:37;32.70;;;14.00;;
37199;SDS011;23096;50.892;16.746;2023-04-03T17:20:02;14.80;;;7.80;;
37199;SDS011;23096;50.892;16.746;2023-04-03T17:22:29;17.00;;;8.30;;
37199;SDS011;23096;50.892;16.746;2023-04-03T17:24:55;8.20;;;3.40;;
37199;SDS011;23096;50.892;16.746;2023-04-03T17:27:21;7.10;;;3.80;;
37199;SDS011;23096;50.892;16.746;2023-04-03T17:29:47;7.20;;;4.20;;
37199;SDS011;23096;50.892;16.746;2023-04-03T17:32:13;10.60;;;4.60;;
37199;SDS011;23096;50.892;16.746;2023-04-03T17:34:38;10.40;;;4.80;;
37199;SDS011;23096;50.892;16.746;2023-04-03T17:37:04;10.80;;;4.60;;
37199;SDS011;23096;50.892;16.746;2023-04-03T17:39:29;17.20;;;7.10;;
37199;SDS011;23096;50.892;16.746;2023-04-03T17:41:55;20.60;;;9.10;;
37199;SDS011;23096;50.892;16.746;2023-04-03T17:44:21;18.60;;;9.10;;
37199;SDS011;23096;50.892;16.746;2023-04-03T17:46:46;22.30;;;8.40;;
37199;SDS011;23096;50.892;16.746;2023-04-03T17:49:12;12.40;;;6.20;;
37199;SDS011;23096;50.892;16.746;2023-04-03T17:51:40;22.40;;;7.40;;
37199;SDS011;23096;50.892;16.746;2023-04-03T17:54:06;13.40;;;7.60;;
37199;SDS011;23096;50.892;16.746;2023-04-03T17:56:31;14.20;;;7.80;;
37199;SDS011;23096;50.892;16.746;2023-04-03T17:58:57;14.10;;;6.70;;
37199;SDS011;23096;50.892;16.746;2023-04-03T18:01:24;14.20;;;7.30;;
37199;SDS011;23096;50.892;16.746;2023-04-03T18:03:55;14.30;;;7.10;;
37199;SDS011;23096;50.892;16.746;2023-04-03T18:06:24;13.50;;;7.10;;
37199;SDS011;23096;50.892;16.746;2023-04-03T18:08:53;12.70;;;7.40;;
37199;SDS011;23096;50.892;16.746;2023-04-03T18:11:31;15.60;;;8.10;;
37199;SDS011;23096;50.892;16.746;2023-04-03T18:13:58;17.90;;;8.60;;
37199;SDS011;23096;50.892;16.746;2023-04-03T18:16:25;17.00;;;7.80;;
37199;SDS011;23096;50.892;16.746;2023-04-03T18:18:51;12.10;;;6.40;;
37199;SDS011;23096;50.892;16.746;2023-04-03T18:21:17;15.40;;;8.10;;
37199;SDS011;23096;50.892;16.746;2023-04-03T18:23:48;13.40;;;5.80;;
37199;SDS011;23096;50.892;16.746;2023-04-03T18:26:17;14.30;;;6.00;;
37199;SDS011;23096;50.892;16.746;2023-04-03T18:28:44;16.10;;;7.80;;
37199;SDS011;23096;50.892;16.746;2023-04-03T18:31:13;19.60;;;8.00;;
37199;SDS011;23096;50.892;16.746;2023-04-03T18:33:41;19.60;;;9.80;;
37199;SDS011;23096;50.892;16.746;2023-04-03T18:36:08;25.30;;;10.00;;
37199;SDS011;23096;50.892;16.746;2023-04-03T18:38:34;22.40;;;10.90;;
37199;SDS011;23096;50.892;16.746;2023-04-03T18:41:00;24.60;;;10.10;;
37199;SDS011;23096;50.892;16.746;2023-04-03T18:43:27;25.90;;;11.10;;
37199;SDS011;23096;50.892;16.746;2023-04-03T18:45:54;22.90;;;10.60;;
37199;SDS011;23096;50.892;16.746;2023-04-03T18:48:20;25.60;;;12.50;;
37199;SDS011;23096;50.892;16.746;2023-04-03T18:50:46;28.60;;;13.00;;
37199;SDS011;23096;50.892;16.746;2023-04-03T18:53:12;18.80;;;7.70;;
37199;SDS011;23096;50.892;16.746;2023-04-03T18:55:38;16.30;;;7.30;;
37199;SDS011;23096;50.892;16.746;2023-04-03T18:58:03;18.00;;;8.50;;
37199;SDS011;23096;50.892;16.746;2023-04-03T19:00:29;12.90;;;5.70;;
37199;SDS011;23096;50.892;16.746;2023-04-03T19:02:56;9.10;;;4.60;;
37199;SDS011;23096;50.892;16.746;2023-04-03T19:05:22;13.50;;;5.60;;
37199;SDS011;23096;50.892;16.746;2023-04-03T19:07:48;9.30;;;4.50;;
37199;SDS011;23096;50.892;16.746;2023-04-03T19:10:14;10.50;;;5.00;;
37199;SDS011;23096;50.892;16.746;2023-04-03T19:12:47;12.90;;;6.10;;
37199;SDS011;23096;50.892;16.746;2023-04-03T19:15:15;13.60;;;6.70;;
37199;SDS011;23096;50.892;16.746;2023-04-03T19:17:42;12.20;;;5.70;;
37199;SDS011;23096;50.892;16.746;2023-04-03T19:20:09;13.10;;;5.40;;
37199;SDS011;23096;50.892;16.746;2023-04-03T19:22:37;12.30;;;5.70;;
37199;SDS011;23096;50.892;16.746;2023-04-03T19:25:03;14.50;;;7.00;;
37199;SDS011;23096;50.892;16.746;2023-04-03T19:27:31;11.80;;;5.40;;
37199;SDS011;23096;50.892;16.746;2023-04-03T19:29:57;15.90;;;6.70;;
37199;SDS011;23096;50.892;16.746;2023-04-03T19:32:22;17.00;;;7.50;;
37199;SDS011;23096;50.892;16.746;2023-04-03T19:34:48;15.00;;;6.80;;
37199;SDS011;23096;50.892;16.746;2023-04-03T19:37:14;14.30;;;7.20;;
37199;SDS011;23096;50.892;16.746;2023-04-03T19:39:41;13.00;;;7.10;;
37199;SDS011;23096;50.892;16.746;2023-04-03T19:42:07;13.60;;;7.10;;
37199;SDS011;23096;50.892;16.746;2023-04-03T19:44:32;15.90;;;6.70;;
37199;SDS011;23096;50.892;16.746;2023-04-03T19:47:00;20.90;;;8.10;;
37199;SDS011;23096;50.892;16.746;2023-04-03T19:49:26;21.30;;;8.80;;
37199;SDS011;23096;50.892;16.746;2023-04-03T19:51:52;21.60;;;10.00;;
37199;SDS011;23096;50.892;16.746;2023-04-03T19:54:18;19.60;;;10.10;;
37199;SDS011;23096;50.892;16.746;2023-04-03T19:56:44;34.80;;;14.70;;
37199;SDS011;23096;50.892;16.746;2023-04-03T19:59:10;35.90;;;16.00;;
37199;SDS011;23096;50.892;16.746;2023-04-03T20:01:36;27.90;;;10.80;;
37199;SDS011;23096;50.892;16.746;2023-04-03T20:04:01;19.70;;;8.80;;
37199;SDS011;23096;50.892;16.746;2023-04-03T20:06:27;21.60;;;9.20;;
37199;SDS011;23096;50.892;16.746;2023-04-03T20:08:53;22.40;;;8.70;;
37199;SDS011;23096;50.892;16.746;2023-04-03T20:11:19;22.60;;;10.30;;
37199;SDS011;23096;50.892;16.746;2023-04-03T20:13:48;22.60;;;8.30;;
37199;SDS011;23096;50.892;16.746;2023-04-03T20:16:15;23.60;;;8.10;;
37199;SDS011;23096;50.892;16.746;2023-04-03T20:18:42;17.50;;;7.00;;
37199;SDS011;23096;50.892;16.746;2023-04-03T20:21:09;22.70;;;8.00;;
37199;SDS011;23096;50.892;16.746;2023-04-03T20:23:36;21.60;;;8.30;;
37199;SDS011;23096;50.892;16.746;2023-04-03T20:26:05;21.70;;;8.60;;
37199;SDS011;23096;50.892;16.746;2023-04-03T20:28:32;27.20;;;11.70;;
37199;SDS011;23096;50.892;16.746;2023-04-03T20:30:58;21.30;;;8.90;;
37199;SDS011;23096;50.892;16.746;2023-04-03T20:33:26;18.40;;;8.40;;
37199;SDS011;23096;50.892;16.746;2023-04-03T20:35:53;17.80;;;7.40;;
37199;SDS011;23096;50.892;16.746;2023-04-03T20:38:21;14.90;;;7.40;;
37199;SDS011;23096;50.892;16.746;2023-04-03T20:40:47;15.20;;;7.30;;
37199;SDS011;23096;50.892;16.746;2023-04-03T20:43:13;15.60;;;6.90;;
37199;SDS011;23096;50.892;16.746;2023-04-03T20:45:39;11.50;;;6.60;;
37199;SDS011;23096;50.892;16.746;2023-04-03T20:48:04;12.60;;;6.50;;
37199;SDS011;23096;50.892;16.746;2023-04-03T20:50:38;15.60;;;7.40;;
37199;SDS011;23096;50.892;16.746;2023-04-03T20:53:10;13.30;;;5.70;;
37199;SDS011;23096;50.892;16.746;2023-04-03T20:55:36;12.20;;;6.20;;
37199;SDS011;23096;50.892;16.746;2023-04-03T20:58:03;15.70;;;6.60;;
37199;SDS011;23096;50.892;16.746;2023-04-03T21:00:30;12.40;;;5.80;;
37199;SDS011;23096;50.892;16.746;2023-04-03T21:02:59;15.30;;;6.20;;
37199;SDS011;23096;50.892;16.746;2023-04-03T21:05:27;13.60;;;6.20;;
37199;SDS011;23096;50.892;16.746;2023-04-03T21:19:26;13.60;;;6.90;;
37199;SDS011;23096;50.892;16.746;2023-04-03T21:21:52;15.00;;;7.30;;
37199;SDS011;23096;50.892;16.746;2023-04-03T21:24:19;9.50;;;5.30;;
37199;SDS011;23096;50.892;16.746;2023-04-03T21:26:46;13.50;;;6.40;;
37199;SDS011;23096;50.892;16.746;2023-04-03T21:29:12;12.90;;;5.60;;
37199;SDS011;23096;50.892;16.746;2023-04-03T21:34:33;16.00;;;5.40;;
37199;SDS011;23096;50.892;16.746;2023-04-03T21:37:00;12.20;;;5.40;;
37199;SDS011;23096;50.892;16.746;2023-04-03T21:39:27;10.60;;;4.00;;
37199;SDS011;23096;50.892;16.746;2023-04-03T21:41:53;11.60;;;4.10;;
37199;SDS011;23096;50.892;16.746;2023-04-03T21:44:19;7.90;;;3.60;;
37199;SDS011;23096;50.892;16.746;2023-04-03T21:46:45;6.90;;;3.90;;
37199;SDS011;23096;50.892;16.746;2023-04-03T21:49:21;8.40;;;3.90;;
37199;SDS011;23096;50.892;16.746;2023-04-03T21:51:49;7.10;;;3.40;;
37199;SDS011;23096;50.892;16.746;2023-04-03T21:54:16;11.60;;;4.90;;
37199;SDS011;23096;50.892;16.746;2023-04-03T21:56:42;11.90;;;6.30;;
37199;SDS011;23096;50.892;16.746;2023-04-03T21:59:08;14.60;;;5.70;;
37199;SDS011;23096;50.892;16.746;2023-04-03T22:01:33;9.40;;;4.60;;
37199;SDS011;23096;50.892;16.746;2023-04-03T22:03:59;10.00;;;4.60;;
37199;SDS011;23096;50.892;16.746;2023-04-03T22:06:26;8.10;;;4.10;;
37199;SDS011;23096;50.892;16.746;2023-04-03T22:08:52;7.30;;;4.10;;
37199;SDS011;23096;50.892;16.746;2023-04-03T22:11:18;8.20;;;4.20;;
37199;SDS011;23096;50.892;16.746;2023-04-03T22:13:49;10.30;;;4.00;;
37199;SDS011;23096;50.892;16.746;2023-04-03T22:16:16;9.70;;;4.50;;
37199;SDS011;23096;50.892;16.746;2023-04-03T22:18:41;12.60;;;5.40;;
37199;SDS011;23096;50.892;16.746;2023-04-03T22:21:07;15.50;;;6.80;;
37199;SDS011;23096;50.892;16.746;2023-04-03T22:23:32;17.50;;;7.00;;
37199;SDS011;23096;50.892;16.746;2023-04-03T22:25:59;16.20;;;6.90;;
37199;SDS011;23096;50.892;16.746;2023-04-03T22:28:27;13.80;;;6.50;;
37199;SDS011;23096;50.892;16.746;2023-04-03T22:30:53;14.50;;;5.80;;
37199;SDS011;23096;50.892;16.746;2023-04-03T22:33:20;16.40;;;6.40;;
37199;SDS011;23096;50.892;16.746;2023-04-03T22:35:46;16.70;;;5.70;;
37199;SDS011;23096;50.892;16.746;2023-04-03T22:38:13;12.20;;;6.10;;
37199;SDS011;23096;50.892;16.746;2023-04-03T22:40:40;13.00;;;5.60;;
37199;SDS011;23096;50.892;16.746;2023-04-03T22:43:06;12.20;;;6.20;;
37199;SDS011;23096;50.892;16.746;2023-04-03T22:45:32;14.30;;;6.60;;
37199;SDS011;23096;50.892;16.746;2023-04-03T22:47:58;14.30;;;6.50;;
37199;SDS011;23096;50.892;16.746;2023-04-03T22:50:24;12.60;;;6.10;;
37199;SDS011;23096;50.892;16.746;2023-04-03T22:52:50;12.30;;;5.10;;
37199;SDS011;23096;50.892;16.746;2023-04-03T22:55:16;10.70;;;5.20;;
37199;SDS011;23096;50.892;16.746;2023-04-03T22:57:45;11.70;;;4.80;;
37199;SDS011;23096;50.892;16.746;2023-04-03T23:00:13;10.30;;;5.30;;
37199;SDS011;23096;50.892;16.746;2023-04-03T23:02:40;11.00;;;5.10;;
37199;SDS011;23096;50.892;16.746;2023-04-03T23:05:06;9.20;;;4.10;;
37199;SDS011;23096;50.892;16.746;2023-04-03T23:07:32;12.70;;;5.70;;
37199;SDS011;23096;50.892;16.746;2023-04-03T23:09:59;11.20;;;4.60;;
37199;SDS011;23096;50.892;16.746;2023-04-03T23:12:25;13.10;;;5.80;;
37199;SDS011;23096;50.892;16.746;2023-04-03T23:14:50;16.90;;;6.00;;
37199;SDS011;23096;50.892;16.746;2023-04-03T23:17:16;11.80;;;6.40;;
37199;SDS011;23096;50.892;16.746;2023-04-03T23:19:42;13.20;;;6.60;;
37199;SDS011;23096;50.892;16.746;2023-04-03T23:22:07;16.20;;;6.00;;
37199;SDS011;23096;50.892;16.746;2023-04-03T23:24:33;12.30;;;6.00;;
37199;SDS011;23096;50.892;16.746;2023-04-03T23:26:59;14.90;;;6.30;;
37199;SDS011;23096;50.892;16.746;2023-04-03T23:29:24;24.70;;;9.20;;
37199;SDS011;23096;50.892;16.746;2023-04-03T23:31:50;17.50;;;7.70;;
37199;SDS011;23096;50.892;16.746;2023-04-03T23:34:15;17.20;;;7.20;;
37199;SDS011;23096;50.892;16.746;2023-04-03T23:36:41;18.30;;;8.30;;
37199;SDS011;23096;50.892;16.746;2023-04-03T23:39:07;17.50;;;7.40;;
37199;SDS011;23096;50.892;16.746;2023-04-03T23:41:32;12.90;;;5.60;;
37199;SDS011;23096;50.892;16.746;2023-04-03T23:43:58;9.40;;;3.70;;
37199;SDS011;23096;50.892;16.746;2023-04-03T23:46:24;11.20;;;4.90;;
37199;SDS011;23096;50.892;16.746;2023-04-03T23:48:49;11.80;;;4.40;;
37199;SDS011;23096;50.892;16.746;2023-04-03T23:51:15;9.40;;;4.30;;
37199;SDS011;23096;50.892;16.746;2023-04-03T23:53:41;8.20;;;4.90;;
37199;SDS011;23096;50.892;16.746;2023-04-03T23:56:06;8.80;;;4.70;;
37199;SDS011;23096;50.892;16.746;2023-04-03T23:58:36;11.00;;;4.90;;
